Time;durP1;ratioP1;P1;durP2;ratioP2;P2;SDS_P1;SDS_P2;PMS_P1;PMS_P2;Temp;Humidity;BMP_temperature;BMP_pressure;BME280_temperature;BME280_humidity;BME280_pressure;Samples;Min_cycle;Max_cycle;Signal;HPM_P1;HPM_P2
2021/12/21 00:02:42;;;;;;;1.85;1.10;;;18.40;63.70;;;;;;10381316;28;20038;-65
2021/12/21 00:07:43;;;;;;;1.77;1.00;;;18.30;63.80;;;;;;10373913;28;20392;-63
2021/12/21 00:18:04;;;;;;;2.28;0.80;;;18.20;64.40;;;;;;10373500;28;20050;-61
2021/12/21 00:28:05;;;;;;;2.75;0.95;;;18.30;63.80;;;;;;10372758;28;20121;-65
2021/12/21 00:33:07;;;;;;;1.67;1.02;;;18.20;63.70;;;;;;10372871;28;20138;-65
2021/12/21 00:38:07;;;;;;;3.17;1.00;;;18.20;63.70;;;;;;10372865;28;20037;-62
2021/12/21 00:43:08;;;;;;;2.50;1.27;;;18.20;63.60;;;;;;10372689;28;20034;-66
2021/12/21 00:48:09;;;;;;;1.63;0.80;;;18.30;63.50;;;;;;10372613;28;20049;-61
2021/12/21 00:53:10;;;;;;;2.38;1.10;;;18.40;63.30;;;;;;10372284;28;20514;-61
2021/12/21 00:58:12;;;;;;;2.03;1.20;;;18.40;63.20;;;;;;10372284;28;20068;-65
2021/12/21 01:03:14;;;;;;;2.28;0.95;;;18.30;63.20;;;;;;10379453;28;20029;-62
2021/12/21 01:08:20;;;;;;;3.05;1.00;;;18.30;63.10;;;;;;10371777;28;20042;-66
2021/12/21 01:13:40;;;;;;;2.45;1.02;;;18.30;63.20;;;;;;10371998;28;20033;-62
2021/12/21 01:18:59;;;;;;;1.80;0.90;;;18.40;63.30;;;;;;10371437;28;20041;-63
2021/12/21 01:40:02;;;;;;;2.72;1.10;;;18.40;65.10;;;;;;10370666;28;20495;-62
2021/12/21 01:50:24;;;;;;;2.42;0.85;;;18.30;65.40;;;;;;10378497;28;20042;-63
2021/12/21 01:55:25;;;;;;;2.15;1.33;;;18.20;65.50;;;;;;10378878;28;20434;-65
2021/12/21 02:00:27;;;;;;;1.98;1.00;;;18.20;65.50;;;;;;10386211;28;20041;-65
2021/12/21 02:05:28;;;;;;;1.45;0.90;;;18.20;65.40;;;;;;10377859;28;20026;-65
2021/12/21 02:10:29;;;;;;;1.48;0.70;;;18.20;65.20;;;;;;10378591;28;20120;-64
2021/12/21 02:15:30;;;;;;;1.67;0.82;;;18.30;65.10;;;;;;10378157;28;20038;-64
2021/12/21 02:30:32;;;;;;;2.10;0.80;;;18.30;64.50;;;;;;10378118;28;20041;-65
2021/12/21 02:35:33;;;;;;;3.30;1.10;;;18.30;64.40;;;;;;10377262;28;20045;-67
2021/12/21 02:40:35;;;;;;;1.70;0.70;;;18.30;64.40;;;;;;10378298;28;20042;-66
2021/12/21 02:45:36;;;;;;;1.92;0.90;;;18.20;64.30;;;;;;10375801;28;20042;-63
2021/12/21 02:50:39;;;;;;;2.03;0.82;;;18.20;64.30;;;;;;10377036;28;20076;-65
2021/12/21 02:55:40;;;;;;;1.88;0.90;;;18.20;64.30;;;;;;10375933;28;20046;-66
2021/12/21 03:00:43;;;;;;;1.90;0.65;;;18.20;64.10;;;;;;10383951;28;20038;-65
2021/12/21 03:05:53;;;;;;;4.22;1.20;;;18.30;63.90;;;;;;10376489;28;20380;-62
2021/12/21 03:11:06;;;;;;;1.52;0.52;;;18.40;63.70;;;;;;10375102;28;20038;-65
2021/12/21 03:16:07;;;;;;;2.03;1.00;;;18.40;63.70;;;;;;10375906;28;20417;-65
2021/12/21 03:21:08;;;;;;;2.00;0.95;;;18.30;63.70;;;;;;10376068;28;20092;-65
2021/12/21 03:26:08;;;;;;;1.20;0.80;;;18.30;63.70;;;;;;10375525;28;20117;-65
2021/12/21 03:31:10;;;;;;;1.23;0.73;;;18.30;63.70;;;;;;10375403;28;20042;-65
2021/12/21 03:36:11;;;;;;;1.27;0.57;;;18.30;63.60;;;;;;10375036;28;20045;-65
2021/12/21 03:41:15;;;;;;;2.65;0.93;;;18.30;63.50;;;;;;10375263;28;20034;-64
2021/12/21 03:46:16;;;;;;;1.13;0.70;;;18.30;63.50;;;;;;10374997;28;20042;-63
2021/12/21 03:51:19;;;;;;;1.25;0.50;;;18.30;63.30;;;;;;10375648;28;20030;-66
2021/12/21 04:01:27;;;;;;;2.17;1.10;;;18.40;63.00;;;;;;10382262;28;20073;-64
2021/12/21 04:06:27;;;;;;;1.60;0.70;;;18.40;62.90;;;;;;10372959;28;20456;-64
2021/12/21 04:11:28;;;;;;;1.33;0.55;;;18.40;62.80;;;;;;10374046;28;20034;-65
2021/12/21 04:16:29;;;;;;;1.00;0.60;;;18.30;62.90;;;;;;10373692;28;20044;-64
2021/12/21 04:21:30;;;;;;;2.05;0.98;;;18.30;62.80;;;;;;10373473;28;20034;-65
2021/12/21 04:26:31;;;;;;;1.55;0.73;;;18.30;62.80;;;;;;10373056;28;20056;-64
2021/12/21 04:31:32;;;;;;;1.70;0.50;;;18.20;62.70;;;;;;10371984;28;20472;-65
2021/12/21 04:36:33;;;;;;;3.88;0.77;;;18.30;62.70;;;;;;10372624;28;20076;-65
2021/12/21 04:41:34;;;;;;;1.00;0.70;;;18.40;62.40;;;;;;10372624;28;20116;-64
2021/12/21 04:46:34;;;;;;;1.02;0.73;;;18.40;62.20;;;;;;10372780;28;20168;-66
2021/12/21 04:51:35;;;;;;;1.52;0.70;;;18.40;62.00;;;;;;10372496;28;20129;-64
2021/12/21 04:56:38;;;;;;;1.35;0.65;;;18.40;62.20;;;;;;10372361;28;20038;-63
2021/12/21 05:01:39;;;;;;;2.22;0.98;;;18.40;62.10;;;;;;10393923;28;20034;-63
2021/12/21 05:06:39;;;;;;;1.45;0.70;;;18.40;62.10;;;;;;10371153;28;20049;-63
2021/12/21 05:11:43;;;;;;;1.58;1.10;;;18.40;62.10;;;;;;10370461;28;20142;-65
2021/12/21 05:16:44;;;;;;;1.00;0.60;;;18.40;62.00;;;;;;10370971;28;20022;-64
2021/12/21 05:21:44;;;;;;;1.55;0.70;;;18.40;62.60;;;;;;10370804;28;20396;-66
2021/12/21 05:26:45;;;;;;;1.65;0.60;;;18.40;61.80;;;;;;10370938;28;20026;-65
2021/12/21 05:31:46;;;;;;;1.83;0.70;;;18.30;61.80;;;;;;10369903;28;20490;-67
2021/12/21 05:36:47;;;;;;;1.45;0.60;;;18.40;62.00;;;;;;10371063;28;20030;-64
2021/12/21 05:41:54;;;;;;;6.10;0.82;;;18.40;61.90;;;;;;10370015;28;20452;-66
2021/12/21 05:46:55;;;;;;;4.70;0.70;;;18.40;62.30;;;;;;10370806;28;20038;-65
2021/12/21 05:51:55;;;;;;;1.63;0.77;;;18.40;62.60;;;;;;10369847;28;20037;-65
2021/12/21 05:56:56;;;;;;;2.83;0.57;;;18.40;62.40;;;;;;10369592;28;20632;-63
2021/12/21 06:01:57;;;;;;;6.07;0.90;;;18.40;63.20;;;;;;10378097;28;20105;-64
2021/12/21 06:06:58;;;;;;;4.40;0.93;;;18.40;63.30;;;;;;10370919;28;20041;-65
2021/12/21 06:12:15;;;;;;;2.63;1.02;;;18.40;63.10;;;;;;10370429;28;20034;-66
2021/12/21 06:22:47;;;;;;;3.72;1.10;;;18.30;63.80;;;;;;10371084;28;20065;-65
2021/12/21 06:27:48;;;;;;;8.43;1.85;;;18.40;63.90;;;;;;10371458;28;20400;-64
2021/12/21 06:32:49;;;;;;;6.82;1.45;;;18.40;63.10;;;;;;10377617;28;20046;-62
2021/12/21 06:37:50;;;;;;;6.88;1.77;;;18.20;61.70;;;;;;10378375;28;20034;-65
2021/12/21 06:42:51;;;;;;;7.88;1.73;;;18.20;61.30;;;;;;10377182;28;20065;-62
2021/12/21 06:53:11;;;;;;;7.35;1.63;;;18.20;61.30;;;;;;10372176;28;20034;-64
2021/12/21 06:58:12;;;;;;;9.10;1.90;;;18.20;61.10;;;;;;10372972;28;20121;-63
2021/12/21 07:03:13;;;;;;;11.95;2.20;;;18.30;60.90;;;;;;10381686;28;20026;-63
2021/12/21 07:08:17;;;;;;;8.35;1.63;;;18.40;60.60;;;;;;10376285;28;20100;-62
2021/12/21 07:18:38;;;;;;;7.95;1.65;;;18.40;60.40;;;;;;10373359;28;20038;-64
2021/12/21 07:23:39;;;;;;;7.10;1.83;;;18.50;60.00;;;;;;10372176;28;20109;-64
2021/12/21 07:28:40;;;;;;;5.63;1.42;;;18.50;59.60;;;;;;10371467;28;20121;-62
2021/12/21 07:33:41;;;;;;;4.13;1.35;;;18.50;59.70;;;;;;10370168;28;20052;-66
2021/12/21 07:38:41;;;;;;;6.78;1.60;;;18.40;59.80;;;;;;10364500;28;20048;-63
2021/12/21 07:43:42;;;;;;;6.65;1.38;;;18.30;60.20;;;;;;10369516;28;20506;-63
2021/12/21 07:48:43;;;;;;;15.00;2.13;;;18.20;60.90;;;;;;10374872;28;20034;-65
2021/12/21 07:53:44;;;;;;;8.10;1.77;;;18.20;60.90;;;;;;10375213;28;20037;-64
2021/12/21 07:58:47;;;;;;;9.02;1.73;;;18.20;60.60;;;;;;10373697;28;20476;-67
2021/12/21 08:03:49;;;;;;;10.02;1.67;;;18.20;60.50;;;;;;10377237;28;20464;-64
2021/12/21 08:08:50;;;;;;;8.65;1.88;;;18.20;60.40;;;;;;10372546;28;20045;-65
2021/12/21 08:13:51;;;;;;;7.68;1.95;;;18.20;60.20;;;;;;10372418;28;20458;-64
2021/12/21 08:18:52;;;;;;;9.05;2.20;;;18.20;60.50;;;;;;10371694;28;20029;-65
2021/12/21 08:23:53;;;;;;;7.75;2.17;;;18.20;60.70;;;;;;10364350;28;20034;-65
2021/12/21 08:28:53;;;;;;;8.57;1.60;;;18.20;60.80;;;;;;10343325;28;20165;-65
2021/12/21 08:33:54;;;;;;;8.35;2.15;;;18.20;61.30;;;;;;10369971;28;20139;-64
2021/12/21 08:38:55;;;;;;;8.73;2.05;;;18.30;60.50;;;;;;10370687;28;20042;-65
2021/12/21 08:43:56;;;;;;;11.07;2.22;;;18.30;59.80;;;;;;10372939;28;20408;-64
2021/12/21 08:48:58;;;;;;;5.65;2.15;;;18.30;60.80;;;;;;10371776;28;20057;-64
2021/12/21 08:53:59;;;;;;;7.57;2.00;;;18.20;61.10;;;;;;10369239;28;20033;-66
2021/12/21 08:58:59;;;;;;;10.52;1.80;;;18.20;60.20;;;;;;10367197;28;20452;-65
2021/12/21 09:04:00;;;;;;;6.45;1.70;;;18.20;60.50;;;;;;10358832;28;20056;-65
2021/12/21 09:09:01;;;;;;;4.80;1.67;;;18.20;60.50;;;;;;10370023;28;20037;-64
2021/12/21 09:14:02;;;;;;;6.05;1.75;;;18.20;61.10;;;;;;10370741;28;20048;-64
2021/12/21 09:19:03;;;;;;;5.35;1.45;;;18.30;60.00;;;;;;10371042;28;20049;-67
2021/12/21 09:24:04;;;;;;;6.70;2.63;;;18.20;60.00;;;;;;10368974;28;20038;-66
2021/12/21 09:29:04;;;;;;;5.05;1.83;;;18.20;60.10;;;;;;10359110;28;20033;-64
2021/12/21 09:34:05;;;;;;;8.63;1.80;;;18.20;60.30;;;;;;10374979;28;20488;-65
2021/12/21 09:39:06;;;;;;;6.40;2.08;;;18.30;59.20;;;;;;10370911;28;20042;-65
2021/12/21 09:44:07;;;;;;;4.25;2.10;;;18.30;60.30;;;;;;10371550;28;20038;-63
2021/12/21 09:49:08;;;;;;;5.60;1.92;;;18.20;60.30;;;;;;10367504;28;20095;-64
2021/12/21 09:54:09;;;;;;;7.43;2.40;;;18.20;60.30;;;;;;10368975;28;20559;-64
2021/12/21 09:59:09;;;;;;;6.00;1.73;;;18.10;60.60;;;;;;10370554;28;20037;-64
2021/12/21 10:04:10;;;;;;;8.32;1.70;;;18.00;62.10;;;;;;10372822;28;20480;-65
2021/12/21 10:09:11;;;;;;;5.43;1.75;;;17.90;62.60;;;;;;10378872;28;20075;-65
2021/12/21 10:14:11;;;;;;;4.53;1.35;;;17.90;63.10;;;;;;10378088;28;20480;-65
2021/12/21 10:19:23;;;;;;;7.55;1.65;;;17.90;63.10;;;;;;10379738;28;20570;-65
2021/12/21 10:24:28;;;;;;;5.40;1.90;;;17.90;63.10;;;;;;10379148;28;20045;-64
2021/12/21 10:30:09;;;;;;;8.15;1.58;;;17.90;63.10;;;;;;10379021;28;20038;-67
2021/12/21 10:35:12;;;;;;;8.75;1.88;;;17.80;63.30;;;;;;10374525;28;20443;-67
2021/12/21 10:40:25;;;;;;;4.65;1.67;;;17.80;63.40;;;;;;10377541;28;20117;-67
2021/12/21 10:45:42;;;;;;;3.85;1.33;;;17.80;63.50;;;;;;10374194;28;20029;-65
2021/12/21 10:50:48;;;;;;;8.48;1.98;;;17.80;63.70;;;;;;10376113;28;20042;-66
2021/12/21 10:56:08;;;;;;;5.57;1.67;;;17.70;63.70;;;;;;10376605;28;20042;-63
2021/12/21 11:01:15;;;;;;;5.15;1.58;;;17.70;63.90;;;;;;10381899;28;20029;-66
2021/12/21 11:06:18;;;;;;;2.83;1.45;;;17.70;64.10;;;;;;10362024;28;20026;-65
2021/12/21 11:11:32;;;;;;;4.53;1.63;;;17.70;64.20;;;;;;10375794;28;20072;-67
2021/12/21 11:16:52;;;;;;;5.50;1.42;;;17.70;64.30;;;;;;10376460;28;20038;-67
2021/12/21 11:21:55;;;;;;;3.50;1.83;;;17.70;64.30;;;;;;10375946;28;20460;-66
2021/12/21 11:26:56;;;;;;;4.68;1.45;;;17.70;64.00;;;;;;10364334;28;20110;-66
2021/12/21 11:31:58;;;;;;;4.43;1.40;;;17.70;64.10;;;;;;10373443;28;20729;-67
2021/12/21 11:42:54;;;;;;;8.30;1.80;;;17.70;64.40;;;;;;10374352;28;20029;-65
2021/12/21 11:47:58;;;;;;;4.45;1.50;;;17.70;64.40;;;;;;10370882;28;20134;-65
2021/12/21 11:53:09;;;;;;;4.82;1.50;;;17.60;64.80;;;;;;10372613;28;20026;-65
2021/12/21 11:58:40;;;;;;;3.50;1.67;;;17.50;65.10;;;;;;10373483;28;20091;-63
2021/12/21 12:03:52;;;;;;;5.32;1.60;;;17.40;65.50;;;;;;10386774;28;20491;-65
2021/12/21 12:09:02;;;;;;;4.90;1.73;;;17.40;65.70;;;;;;10373640;28;20538;-66
2021/12/21 12:14:07;;;;;;;6.68;1.45;;;17.40;65.70;;;;;;10371822;28;20618;-65
2021/12/21 12:19:21;;;;;;;2.97;1.40;;;17.30;65.70;;;;;;10372287;28;20407;-66
2021/12/21 12:24:24;;;;;;;5.93;1.42;;;17.30;65.70;;;;;;10372692;28;20042;-66
2021/12/21 12:29:26;;;;;;;4.50;1.63;;;17.20;65.80;;;;;;10371765;28;20065;-66
2021/12/21 12:34:32;;;;;;;7.63;2.13;;;17.10;65.90;;;;;;10367985;28;20175;-67
2021/12/21 12:39:45;;;;;;;5.07;1.67;;;17.20;65.50;;;;;;10344866;28;20123;-65
2021/12/21 12:44:50;;;;;;;5.35;2.10;;;17.30;65.20;;;;;;10367832;28;20087;-66
2021/12/21 12:49:54;;;;;;;6.38;1.88;;;17.40;64.90;;;;;;10368511;28;20400;-65
2021/12/21 12:54:59;;;;;;;3.63;1.42;;;17.40;64.40;;;;;;10371364;28;20156;-66
2021/12/21 13:00:24;;;;;;;4.05;1.95;;;17.60;64.00;;;;;;10377645;28;20120;-66
2021/12/21 13:05:34;;;;;;;2.42;1.30;;;17.60;63.90;;;;;;10376531;28;20029;-66
2021/12/21 13:10:38;;;;;;;3.88;1.42;;;17.60;63.60;;;;;;10371707;28;20108;-66
2021/12/21 13:15:44;;;;;;;6.80;1.95;;;17.70;63.40;;;;;;10370616;28;20026;-66
2021/12/21 13:20:49;;;;;;;4.75;1.45;;;17.70;63.30;;;;;;10371723;28;20046;-66
2021/12/21 13:26:01;;;;;;;3.70;1.67;;;17.70;63.10;;;;;;10371239;28;20034;-65
2021/12/21 13:31:06;;;;;;;3.20;1.20;;;17.70;63.00;;;;;;10370857;28;20030;-64
2021/12/21 13:36:08;;;;;;;4.10;1.70;;;17.70;63.50;;;;;;10370739;28;20054;-64
2021/12/21 13:41:14;;;;;;;4.00;1.73;;;17.70;62.80;;;;;;10384367;28;20424;-65
2021/12/21 13:46:14;;;;;;;4.43;2.03;;;17.80;62.70;;;;;;10382477;28;20041;-64
2021/12/21 13:51:17;;;;;;;2.65;1.27;;;17.90;62.30;;;;;;10384392;28;20042;-65
2021/12/21 13:56:28;;;;;;;2.83;1.23;;;17.90;62.30;;;;;;10382183;28;20053;-66
2021/12/21 14:01:32;;;;;;;4.47;1.30;;;17.90;62.10;;;;;;10384166;28;20398;-65
2021/12/21 14:06:36;;;;;;;3.47;1.25;;;17.90;62.10;;;;;;10383923;28;20125;-67
2021/12/21 14:11:40;;;;;;;4.40;1.40;;;18.00;61.80;;;;;;10381844;28;20041;-65
2021/12/21 14:16:44;;;;;;;3.40;1.05;;;18.00;62.70;;;;;;10383724;28;20514;-66
2021/12/21 14:21:50;;;;;;;4.28;1.30;;;18.00;63.10;;;;;;10382402;28;20030;-66
2021/12/21 14:26:57;;;;;;;4.88;0.90;;;18.00;63.00;;;;;;10384547;28;20060;-67
2021/12/21 14:37:20;;;;;;;5.18;1.75;;;17.90;63.00;;;;;;10381247;28;20554;-66
2021/12/21 14:42:25;;;;;;;4.15;1.98;;;17.90;62.90;;;;;;10381036;28;20045;-67
2021/12/21 14:47:29;;;;;;;6.10;1.90;;;17.80;62.50;;;;;;10380014;28;20030;-67
2021/12/21 14:52:49;;;;;;;5.38;1.70;;;17.90;62.40;;;;;;10375668;28;20026;-65
2021/12/21 14:58:02;;;;;;;;;;;17.90;62.50;;;;;;10375759;28;20042;-67
2021/12/21 15:03:12;;;;;;;3.13;1.48;;;17.90;62.50;;;;;;10366687;28;19918;-66
2021/12/21 15:08:20;;;;;;;5.60;2.00;;;18.00;62.40;;;;;;10379389;28;20033;-64
2021/12/21 15:13:21;;;;;;;4.75;2.15;;;18.10;62.70;;;;;;10374505;28;20041;-66
2021/12/21 15:18:24;;;;;;;4.78;2.38;;;18.20;62.20;;;;;;10373123;28;20041;-64
2021/12/21 15:23:25;;;;;;;4.72;2.05;;;18.00;62.20;;;;;;10371930;28;20113;-66
2021/12/21 15:28:25;;;;;;;4.13;2.25;;;18.00;62.10;;;;;;10373067;28;20571;-66
2021/12/21 15:33:26;;;;;;;3.88;1.98;;;17.90;62.10;;;;;;10372725;28;20664;-66
2021/12/21 15:38:27;;;;;;;4.82;1.83;;;17.90;62.10;;;;;;10374369;28;20132;-65
2021/12/21 15:43:33;;;;;;;2.80;1.60;;;17.90;61.90;;;;;;10375133;28;20112;-66
2021/12/21 15:48:34;;;;;;;3.13;1.80;;;17.90;61.70;;;;;;10374987;28;20040;-66
2021/12/21 15:53:35;;;;;;;4.43;2.10;;;18.00;61.50;;;;;;10374628;28;20030;-67
2021/12/21 15:58:36;;;;;;;4.15;1.85;;;18.00;61.30;;;;;;10374552;28;20562;-66
2021/12/21 16:03:40;;;;;;;4.30;1.80;;;18.00;61.10;;;;;;10380216;28;20507;-69
2021/12/21 16:08:41;;;;;;;11.23;2.45;;;17.90;61.40;;;;;;10361017;28;20462;-68
2021/12/21 16:13:42;;;;;;;8.35;3.10;;;17.90;61.60;;;;;;10370354;28;20161;-66
2021/12/21 16:18:43;;;;;;;5.63;1.55;;;17.90;61.30;;;;;;10371769;28;20045;-67
2021/12/21 16:23:43;;;;;;;4.55;1.50;;;18.00;61.10;;;;;;10370192;28;20088;-66
2021/12/21 16:28:44;;;;;;;5.93;1.60;;;18.00;60.80;;;;;;10370411;28;20132;-67
2021/12/21 16:33:45;;;;;;;4.63;1.80;;;18.10;60.60;;;;;;10368844;28;20365;-67
2021/12/21 16:38:46;;;;;;;5.72;2.00;;;18.10;60.30;;;;;;10371628;28;20172;-64
2021/12/21 16:43:47;;;;;;;5.30;1.98;;;18.20;60.20;;;;;;10370877;28;20610;-65
2021/12/21 16:48:48;;;;;;;6.32;2.30;;;18.20;59.90;;;;;;10356755;28;20053;-65
2021/12/21 16:53:50;;;;;;;7.30;3.35;;;18.30;59.70;;;;;;10372595;28;20105;-67
2021/12/21 16:58:51;;;;;;;7.18;3.08;;;18.40;59.70;;;;;;10372002;28;20440;-64
2021/12/21 17:03:52;;;;;;;17.02;5.55;;;18.50;59.00;;;;;;10345726;28;20025;-62
2021/12/21 17:08:56;;;;;;;10.30;4.60;;;18.60;59.10;;;;;;10357441;28;20517;-63
2021/12/21 17:13:57;;;;;;;15.07;4.85;;;19.00;62.70;;;;;;10369793;28;20504;-62
2021/12/21 17:18:57;;;;;;;14.80;4.97;;;19.20;62.70;;;;;;10362499;28;20037;-64
2021/12/21 17:23:58;;;;;;;8.05;4.80;;;19.10;62.80;;;;;;10370355;28;20120;-66
2021/12/21 17:28:59;;;;;;;10.90;4.40;;;18.80;63.20;;;;;;10371360;28;20500;-64
2021/12/21 17:34:04;;;;;;;7.50;4.07;;;18.50;63.40;;;;;;10370184;28;20103;-63
2021/12/21 17:39:06;;;;;;;8.57;3.13;;;18.30;62.00;;;;;;10368978;28;20034;-66
2021/12/21 17:44:06;;;;;;;11.60;4.07;;;18.30;61.20;;;;;;10368143;28;20030;-66
2021/12/21 17:49:07;;;;;;;4.93;2.85;;;18.40;60.60;;;;;;10370880;28;20117;-63
2021/12/21 17:54:08;;;;;;;5.03;2.50;;;18.50;60.40;;;;;;10370835;28;20042;-68
2021/12/21 17:59:09;;;;;;;5.95;3.33;;;18.60;60.20;;;;;;10370771;28;20476;-62
2021/12/21 18:04:09;;;;;;;3.90;2.78;;;18.50;59.70;;;;;;10383431;28;20038;-62
2021/12/21 18:09:10;;;;;;;6.25;2.92;;;18.50;59.60;;;;;;10370600;28;20038;-61
2021/12/21 18:14:15;;;;;;;4.50;2.80;;;18.40;59.70;;;;;;10369885;28;20109;-61
2021/12/21 18:19:16;;;;;;;5.20;2.60;;;18.50;59.40;;;;;;10369484;28;20037;-63
2021/12/21 18:24:16;;;;;;;5.15;2.45;;;18.50;59.30;;;;;;10371254;28;20113;-61
2021/12/21 18:29:18;;;;;;;6.40;2.30;;;18.40;60.30;;;;;;10376736;28;20384;-62
2021/12/21 18:34:18;;;;;;;5.30;2.30;;;18.40;60.20;;;;;;10375491;28;20045;-62
2021/12/21 18:39:23;;;;;;;7.35;2.70;;;18.40;60.80;;;;;;10357987;28;20035;-62
2021/12/21 18:44:25;;;;;;;6.75;2.40;;;18.30;61.20;;;;;;10330871;28;20026;-63
2021/12/21 18:49:26;;;;;;;5.75;2.10;;;18.30;61.20;;;;;;10364498;28;20053;-63
2021/12/21 18:54:27;;;;;;;3.40;2.08;;;18.30;61.00;;;;;;10357216;28;20067;-65
2021/12/21 18:59:28;;;;;;;4.85;2.25;;;18.20;61.50;;;;;;10350886;28;20033;-63
2021/12/21 19:04:28;;;;;;;5.75;2.40;;;18.30;61.10;;;;;;10355158;28;20496;-63
2021/12/21 19:09:29;;;;;;;15.55;2.40;;;18.20;61.10;;;;;;10351082;28;20126;-67
2021/12/21 19:14:30;;;;;;;4.35;1.90;;;18.20;61.20;;;;;;10362983;28;20516;-63
2021/12/21 19:19:31;;;;;;;11.50;2.08;;;18.20;61.20;;;;;;10359292;28;20487;-63
2021/12/21 19:24:31;;;;;;;4.22;2.00;;;18.30;61.60;;;;;;10354648;28;20495;-62
2021/12/21 19:29:32;;;;;;;6.47;2.25;;;18.30;61.30;;;;;;10374624;28;20087;-64
2021/12/21 19:34:33;;;;;;;5.47;1.88;;;18.20;61.20;;;;;;10368703;28;20046;-65
2021/12/21 19:39:35;;;;;;;3.83;2.15;;;18.10;61.10;;;;;;10372512;28;20042;-63
2021/12/21 19:44:35;;;;;;;3.67;2.00;;;18.10;61.00;;;;;;10383446;28;20061;-65
2021/12/21 19:49:36;;;;;;;3.60;2.05;;;18.10;61.10;;;;;;10370675;28;20032;-64
2021/12/21 19:54:37;;;;;;;7.68;2.00;;;18.20;61.20;;;;;;10359215;28;20042;-64
2021/12/21 19:59:38;;;;;;;4.13;2.03;;;18.20;61.30;;;;;;10347981;28;20042;-63
2021/12/21 20:04:40;;;;;;;4.45;1.88;;;18.20;61.40;;;;;;10354668;28;20048;-64
2021/12/21 20:09:40;;;;;;;3.70;2.10;;;18.20;61.40;;;;;;10372194;28;20068;-64
2021/12/21 20:14:42;;;;;;;2.95;1.85;;;18.20;61.50;;;;;;10372485;28;20538;-65
2021/12/21 20:19:45;;;;;;;4.40;2.30;;;18.20;61.50;;;;;;10373247;28;20034;-65
2021/12/21 20:24:49;;;;;;;3.70;1.73;;;18.20;61.50;;;;;;10369102;28;20091;-64
2021/12/21 20:29:50;;;;;;;3.25;1.50;;;18.20;61.60;;;;;;10371334;28;20049;-64
2021/12/21 20:34:50;;;;;;;4.13;2.58;;;18.20;61.50;;;;;;10372115;28;20054;-65
2021/12/21 20:39:53;;;;;;;2.80;1.77;;;18.20;61.40;;;;;;10370942;28;20398;-66
2021/12/21 20:44:53;;;;;;;3.67;1.92;;;18.10;61.50;;;;;;10369114;28;20427;-65
2021/12/21 20:49:54;;;;;;;2.85;1.60;;;18.10;61.50;;;;;;10368124;28;20084;-67
2021/12/21 20:54:55;;;;;;;2.83;1.40;;;18.10;61.40;;;;;;10371169;28;20049;-63
2021/12/21 20:59:56;;;;;;;3.17;1.40;;;18.10;61.20;;;;;;10373762;28;20037;-64
2021/12/21 21:04:56;;;;;;;4.25;1.60;;;18.20;60.90;;;;;;10376301;28;20040;-63
2021/12/21 21:09:57;;;;;;;1.70;1.10;;;18.20;60.70;;;;;;10369061;28;20109;-64
2021/12/21 21:14:58;;;;;;;4.40;1.38;;;18.20;60.60;;;;;;10370575;28;20160;-64
2021/12/21 21:19:58;;;;;;;3.58;1.42;;;18.30;60.40;;;;;;10372053;28;20557;-63
2021/12/21 21:24:59;;;;;;;6.07;1.60;;;18.20;60.40;;;;;;10371609;28;20030;-65
2021/12/21 21:30:00;;;;;;;2.30;1.50;;;18.30;60.30;;;;;;10370283;28;20037;-67
2021/12/21 21:35:03;;;;;;;3.17;1.55;;;18.30;60.20;;;;;;10371380;28;20136;-66
2021/12/21 21:40:06;;;;;;;2.95;1.58;;;18.30;60.00;;;;;;10371487;28;20149;-63
2021/12/21 21:45:10;;;;;;;2.78;1.17;;;18.30;59.80;;;;;;10368986;28;20041;-64
2021/12/21 21:50:15;;;;;;;2.63;1.48;;;18.30;59.70;;;;;;10371375;28;20057;-63
2021/12/21 21:55:16;;;;;;;3.10;1.33;;;18.30;59.70;;;;;;10371018;28;20085;-64
2021/12/21 22:00:17;;;;;;;3.22;1.55;;;18.40;59.50;;;;;;10384116;28;20037;-63
2021/12/21 22:05:18;;;;;;;3.00;1.60;;;18.30;59.30;;;;;;10383356;28;20059;-64
2021/12/21 22:10:18;;;;;;;2.17;1.20;;;18.30;59.40;;;;;;10379271;28;20022;-63
2021/12/21 22:15:19;;;;;;;3.75;1.60;;;18.20;59.60;;;;;;10377414;28;20033;-62
2021/12/21 22:20:20;;;;;;;4.93;2.15;;;18.20;59.50;;;;;;10378720;28;20046;-62
2021/12/21 22:25:21;;;;;;;3.10;1.10;;;18.30;59.30;;;;;;10378214;28;20038;-64
2021/12/21 22:30:22;;;;;;;3.83;1.70;;;18.40;59.10;;;;;;10376906;28;20144;-64
2021/12/21 22:35:22;;;;;;;2.83;1.38;;;18.40;59.00;;;;;;10378158;28;20038;-63
2021/12/21 22:40:23;;;;;;;2.72;1.55;;;18.30;58.90;;;;;;10377593;28;20060;-64
2021/12/21 22:45:25;;;;;;;2.92;1.60;;;18.30;59.00;;;;;;10377845;28;20041;-65
2021/12/21 22:50:26;;;;;;;1.92;1.35;;;18.30;59.00;;;;;;10377367;28;20449;-63
2021/12/21 22:55:27;;;;;;;2.83;1.65;;;18.30;58.90;;;;;;10377132;28;20038;-67
2021/12/21 23:00:30;;;;;;;1.85;1.48;;;18.40;58.70;;;;;;10386100;28;20491;-65
2021/12/21 23:05:31;;;;;;;2.60;1.58;;;18.40;58.50;;;;;;10379329;28;20403;-67
2021/12/21 23:10:32;;;;;;;3.05;1.40;;;18.30;58.60;;;;;;10375658;28;20129;-64
2021/12/21 23:15:36;;;;;;;2.45;1.80;;;18.40;58.70;;;;;;10358894;28;20034;-64
2021/12/21 23:20:37;;;;;;;3.22;1.60;;;18.30;59.20;;;;;;10376338;28;20438;-67
2021/12/21 23:25:40;;;;;;;1.98;1.40;;;18.30;58.60;;;;;;10375884;28;20499;-67
2021/12/21 23:30:41;;;;;;;4.10;1.65;;;18.40;58.50;;;;;;10376036;28;20477;-63
2021/12/21 23:35:42;;;;;;;2.47;1.30;;;18.40;58.30;;;;;;10375257;28;20034;-67
2021/12/21 23:40:43;;;;;;;2.85;1.90;;;18.40;58.30;;;;;;10375318;28;20042;-66
2021/12/21 23:45:44;;;;;;;2.47;1.55;;;18.40;58.20;;;;;;10375246;28;20052;-66
2021/12/21 23:50:44;;;;;;;3.42;1.80;;;18.40;58.20;;;;;;10375129;28;20022;-66
2021/12/21 23:55:45;;;;;;;3.33;1.80;;;18.40;58.20;;;;;;10374809;28;20107;-62
